Time;durP1;ratioP1;P1;durP2;ratioP2;P2;SDS_P1;SDS_P2;PMS_P1;PMS_P2;Temp;Humidity;BMP_temperature;BMP_pressure;BME280_temperature;BME280_humidity;BME280_pressure;Samples;Min_cycle;Max_cycle;Signal;HPM_P1;HPM_P2
2023/04/14 00:00:05;;;;;;;0.10;0.10;;;;;;;;;;4998808;28;20399;-77
2023/04/14 00:02:58;;;;;;;0.10;0.10;;;;;;;;;;4980589;28;20504;-77
2023/04/14 00:05:44;;;;;;;0.10;0.10;;;;;;;;;;4981497;28;20058;-78
2023/04/14 00:08:30;;;;;;;0.10;0.10;;;;;;;;;;4981658;28;20038;-75
2023/04/14 00:11:15;;;;;;;0.10;0.10;;;;;;;;;;4983785;28;20826;-76
2023/04/14 00:14:02;;;;;;;0.10;0.10;;;;;;;;;;4994990;28;20049;-78
2023/04/14 00:16:47;;;;;;;0.10;0.10;;;;;;;;;;4981723;28;20428;-76
2023/04/14 00:19:33;;;;;;;0.10;0.10;;;;;;;;;;4980970;28;20432;-76
2023/04/14 00:22:20;;;;;;;0.10;0.10;;;;;;;;;;4980791;28;20053;-76
2023/04/14 00:25:06;;;;;;;0.10;0.10;;;;;;;;;;4993404;28;20068;-76
2023/04/14 00:27:52;;;;;;;0.10;0.10;;;;;;;;;;4992987;28;20491;-76
2023/04/14 00:30:37;;;;;;;0.10;0.10;;;;;;;;;;4984210;28;20078;-75
2023/04/14 00:33:23;;;;;;;0.10;0.10;;;;;;;;;;4997176;28;20062;-75
2023/04/14 00:36:09;;;;;;;0.15;0.15;;;;;;;;;;4999557;28;20133;-77
2023/04/14 00:38:54;;;;;;;0.15;0.15;;;;;;;;;;4989421;28;20033;-76
2023/04/14 00:41:42;;;;;;;0.10;0.10;;;;;;;;;;4999019;28;20111;-76
2023/04/14 00:44:27;;;;;;;0.10;0.10;;;;;;;;;;4997624;28;20887;-77
2023/04/14 00:47:13;;;;;;;0.10;0.10;;;;;;;;;;5000762;28;20367;-75
2023/04/14 00:49:59;;;;;;;0.10;0.10;;;;;;;;;;4998570;28;20034;-75
2023/04/14 00:52:46;;;;;;;0.17;0.17;;;;;;;;;;4999225;28;20513;-76
2023/04/14 00:55:32;;;;;;;0.10;0.10;;;;;;;;;;4998155;28;20057;-74
2023/04/14 00:58:18;;;;;;;0.10;0.10;;;;;;;;;;5002420;28;20822;-77
2023/04/14 01:01:03;;;;;;;0.17;0.17;;;;;;;;;;4996691;28;20050;-75
2023/04/14 01:03:50;;;;;;;0.10;0.10;;;;;;;;;;5012145;28;20034;-76
2023/04/14 01:06:36;;;;;;;0.10;0.10;;;;;;;;;;4994477;28;20037;-77
2023/04/14 01:09:23;;;;;;;0.10;0.10;;;;;;;;;;4999425;28;20656;-76
2023/04/14 01:12:11;;;;;;;0.10;0.10;;;;;;;;;;4996166;28;20048;-77
2023/04/14 01:15:26;;;;;;;0.10;0.10;;;;;;;;;;5004518;28;20096;-77
2023/04/14 01:18:20;;;;;;;0.10;0.10;;;;;;;;;;5022784;28;20129;-77
2023/04/14 01:21:12;;;;;;;0.10;0.10;;;;;;;;;;5024084;28;20573;-75
2023/04/14 01:23:58;;;;;;;0.10;0.10;;;;;;;;;;5003440;28;20061;-76
2023/04/14 01:26:44;;;;;;;0.20;0.20;;;;;;;;;;4995749;28;20127;-76
2023/04/14 01:29:30;;;;;;;0.10;0.10;;;;;;;;;;5004716;28;20038;-75
2023/04/14 01:32:18;;;;;;;0.20;0.20;;;;;;;;;;5000840;28;20033;-75
2023/04/14 01:35:09;;;;;;;0.17;0.17;;;;;;;;;;5006886;28;20658;-75
2023/04/14 01:38:00;;;;;;;0.20;0.20;;;;;;;;;;5001805;28;20040;-75
2023/04/14 01:40:48;;;;;;;0.10;0.10;;;;;;;;;;4998628;28;20095;-74
2023/04/14 01:43:41;;;;;;;0.10;0.10;;;;;;;;;;4998793;28;20030;-74
2023/04/14 01:46:26;;;;;;;0.10;0.10;;;;;;;;;;5001762;28;20060;-75
2023/04/14 01:49:12;;;;;;;0.10;0.10;;;;;;;;;;5005951;28;20048;-77
2023/04/14 01:51:59;;;;;;;0.10;0.10;;;;;;;;;;4999345;28;20322;-74
2023/04/14 01:54:49;;;;;;;0.15;0.15;;;;;;;;;;5003904;28;20658;-76
2023/04/14 01:57:36;;;;;;;0.10;0.10;;;;;;;;;;4999722;28;20149;-75
2023/04/14 02:00:23;;;;;;;0.10;0.10;;;;;;;;;;5000942;28;20492;-74
2023/04/14 02:03:09;;;;;;;0.10;0.10;;;;;;;;;;5003506;28;20033;-74
2023/04/14 02:05:57;;;;;;;0.20;0.20;;;;;;;;;;5003423;28;20490;-76
2023/04/14 02:08:43;;;;;;;0.10;0.10;;;;;;;;;;5005882;28;20049;-75
2023/04/14 02:11:30;;;;;;;0.15;0.15;;;;;;;;;;5026044;28;20044;-77
2023/04/14 02:14:18;;;;;;;0.10;0.10;;;;;;;;;;5005111;28;20454;-74
2023/04/14 02:17:04;;;;;;;0.20;0.20;;;;;;;;;;5003814;28;20558;-77
2023/04/14 02:19:52;;;;;;;0.10;0.10;;;;;;;;;;5007331;28;20037;-75
2023/04/14 02:22:38;;;;;;;0.10;0.10;;;;;;;;;;4991983;28;20042;-75
2023/04/14 02:25:25;;;;;;;0.17;0.17;;;;;;;;;;5000461;28;20030;-75
2023/04/14 02:28:15;;;;;;;0.10;0.10;;;;;;;;;;5000010;28;20797;-76
2023/04/14 02:31:04;;;;;;;0.10;0.10;;;;;;;;;;5000517;28;20554;-75
2023/04/14 02:33:52;;;;;;;0.20;0.20;;;;;;;;;;5002702;28;20262;-75
2023/04/14 02:36:41;;;;;;;0.10;0.10;;;;;;;;;;5001371;28;20523;-74
2023/04/14 02:39:30;;;;;;;0.10;0.10;;;;;;;;;;4998248;28;20042;-74
2023/04/14 02:42:17;;;;;;;0.10;0.10;;;;;;;;;;5000262;28;20116;-76
2023/04/14 02:45:05;;;;;;;0.10;0.10;;;;;;;;;;5001815;28;20034;-76
2023/04/14 02:47:56;;;;;;;0.10;0.10;;;;;;;;;;4991944;28;20113;-75
2023/04/14 02:50:44;;;;;;;0.20;0.20;;;;;;;;;;5006347;28;20384;-76
2023/04/14 02:53:34;;;;;;;0.10;0.10;;;;;;;;;;5002268;28;20038;-76
2023/04/14 02:56:30;;;;;;;0.17;0.17;;;;;;;;;;5001295;28;20057;-75
2023/04/14 02:59:17;;;;;;;0.10;0.10;;;;;;;;;;5003583;28;20061;-76
2023/04/14 03:02:23;;;;;;;0.20;0.20;;;;;;;;;;5001463;28;20041;-77
2023/04/14 03:05:19;;;;;;;0.10;0.10;;;;;;;;;;5013049;28;20120;-75
2023/04/14 03:08:14;;;;;;;0.20;0.20;;;;;;;;;;5027754;28;20042;-76
2023/04/14 03:11:03;;;;;;;0.20;0.20;;;;;;;;;;4998751;28;20046;-76
2023/04/14 03:13:51;;;;;;;0.10;0.10;;;;;;;;;;5001714;28;20380;-75
2023/04/14 03:16:38;;;;;;;0.10;0.10;;;;;;;;;;4997455;28;20530;-76
2023/04/14 03:19:26;;;;;;;0.10;0.10;;;;;;;;;;5006498;28;20049;-76
2023/04/14 03:22:14;;;;;;;0.20;0.20;;;;;;;;;;5000140;28;20555;-76
2023/04/14 03:25:00;;;;;;;0.20;0.20;;;;;;;;;;5026721;28;20037;-75
2023/04/14 03:27:53;;;;;;;0.10;0.10;;;;;;;;;;4985153;28;20589;-76
2023/04/14 03:30:42;;;;;;;0.10;0.10;;;;;;;;;;5027023;28;20041;-75
2023/04/14 03:33:29;;;;;;;0.15;0.15;;;;;;;;;;5012012;28;20033;-76
2023/04/14 03:36:16;;;;;;;0.20;0.20;;;;;;;;;;4997728;28;20799;-76
2023/04/14 03:39:04;;;;;;;0.10;0.10;;;;;;;;;;4998461;28;20044;-75
2023/04/14 03:41:54;;;;;;;0.10;0.10;;;;;;;;;;5001020;28;20093;-75
2023/04/14 03:44:48;;;;;;;0.10;0.10;;;;;;;;;;5026933;28;20092;-75
2023/04/14 03:47:37;;;;;;;0.10;0.10;;;;;;;;;;4998972;28;20045;-74
2023/04/14 03:50:30;;;;;;;0.10;0.10;;;;;;;;;;4999753;28;20036;-77
2023/04/14 03:53:17;;;;;;;0.10;0.10;;;;;;;;;;5026582;28;20034;-77
2023/04/14 03:56:04;;;;;;;0.10;0.10;;;;;;;;;;5023590;28;20053;-76
2023/04/14 03:58:51;;;;;;;0.20;0.20;;;;;;;;;;5026783;28;20494;-74
2023/04/14 04:01:38;;;;;;;0.10;0.10;;;;;;;;;;5001415;28;20568;-75
2023/04/14 04:04:24;;;;;;;0.10;0.10;;;;;;;;;;5002163;28;20453;-75
2023/04/14 04:07:13;;;;;;;0.10;0.10;;;;;;;;;;4999246;28;20644;-75
2023/04/14 04:10:00;;;;;;;0.13;0.13;;;;;;;;;;5005771;28;20036;-76
2023/04/14 04:12:47;;;;;;;0.20;0.20;;;;;;;;;;5028277;28;20033;-76
2023/04/14 04:15:35;;;;;;;0.10;0.10;;;;;;;;;;4997947;28;20030;-77
2023/04/14 04:18:21;;;;;;;0.10;0.10;;;;;;;;;;5002742;28;20053;-76
2023/04/14 04:21:09;;;;;;;0.10;0.10;;;;;;;;;;5001326;28;20042;-77
2023/04/14 04:23:55;;;;;;;0.10;0.10;;;;;;;;;;5001742;28;20057;-75
2023/04/14 04:26:42;;;;;;;0.10;0.10;;;;;;;;;;5028484;28;20056;-76
2023/04/14 04:29:28;;;;;;;0.10;0.10;;;;;;;;;;5001874;28;20037;-75
2023/04/14 04:32:14;;;;;;;0.10;0.10;;;;;;;;;;5002063;28;20049;-76
2023/04/14 04:35:00;;;;;;;0.10;0.10;;;;;;;;;;4999677;28;20442;-78
2023/04/14 04:37:47;;;;;;;0.20;0.20;;;;;;;;;;5002816;28;20046;-75
2023/04/14 04:40:40;;;;;;;0.10;0.10;;;;;;;;;;5002313;28;20092;-76
2023/04/14 04:43:33;;;;;;;0.10;0.10;;;;;;;;;;5000974;28;20087;-76
2023/04/14 04:46:18;;;;;;;0.15;0.15;;;;;;;;;;5000960;28;20052;-76
2023/04/14 04:49:04;;;;;;;0.10;0.10;;;;;;;;;;5000144;28;20033;-76
2023/04/14 04:51:50;;;;;;;0.15;0.15;;;;;;;;;;5001375;28;20038;-76
2023/04/14 04:54:37;;;;;;;0.17;0.17;;;;;;;;;;5004090;28;20057;-77
2023/04/14 04:57:23;;;;;;;0.10;0.10;;;;;;;;;;5006719;28;20558;-76
2023/04/14 05:00:09;;;;;;;0.20;0.20;;;;;;;;;;5001204;28;20034;-78
2023/04/14 05:02:55;;;;;;;0.10;0.10;;;;;;;;;;5001026;28;20278;-77
2023/04/14 05:05:40;;;;;;;0.10;0.10;;;;;;;;;;5006276;28;20033;-76
2023/04/14 05:08:26;;;;;;;0.10;0.10;;;;;;;;;;5003551;28;20049;-76
2023/04/14 05:11:12;;;;;;;0.10;0.10;;;;;;;;;;5012350;28;20467;-75
2023/04/14 05:13:58;;;;;;;0.20;0.20;;;;;;;;;;5003856;28;20042;-74
2023/04/14 05:16:43;;;;;;;0.20;0.20;;;;;;;;;;5005227;28;20334;-75
2023/04/14 05:19:31;;;;;;;0.17;0.17;;;;;;;;;;5004117;28;20257;-74
2023/04/14 05:22:18;;;;;;;0.20;0.20;;;;;;;;;;5005136;28;20483;-75
2023/04/14 05:25:04;;;;;;;0.10;0.10;;;;;;;;;;5021209;28;20156;-76
2023/04/14 05:27:49;;;;;;;0.20;0.20;;;;;;;;;;5004750;28;20081;-75
2023/04/14 05:30:35;;;;;;;0.10;0.10;;;;;;;;;;5004041;28;20505;-75
2023/04/14 05:33:21;;;;;;;0.10;0.10;;;;;;;;;;5003079;28;20508;-75
2023/04/14 05:36:07;;;;;;;0.10;0.10;;;;;;;;;;5004466;28;20042;-75
2023/04/14 05:38:52;;;;;;;0.10;0.10;;;;;;;;;;5003826;28;20168;-75
2023/04/14 05:41:38;;;;;;;0.20;0.20;;;;;;;;;;5002260;28;20033;-75
2023/04/14 05:44:24;;;;;;;0.20;0.20;;;;;;;;;;5005294;28;20040;-75
2023/04/14 05:47:10;;;;;;;0.10;0.10;;;;;;;;;;5002068;28;20038;-76
2023/04/14 05:49:57;;;;;;;0.10;0.10;;;;;;;;;;5003264;28;20037;-75
2023/04/14 05:52:42;;;;;;;0.10;0.10;;;;;;;;;;5001526;28;20079;-73
2023/04/14 05:55:28;;;;;;;0.10;0.10;;;;;;;;;;5004516;28;20423;-74
2023/04/14 05:58:14;;;;;;;0.10;0.10;;;;;;;;;;5005028;28;20491;-74
2023/04/14 06:01:00;;;;;;;0.10;0.10;;;;;;;;;;5001560;28;20042;-75
2023/04/14 06:03:46;;;;;;;0.20;0.20;;;;;;;;;;5002395;28;20030;-75
2023/04/14 06:06:32;;;;;;;0.10;0.10;;;;;;;;;;5002480;28;20026;-74
2023/04/14 06:09:17;;;;;;;0.10;0.10;;;;;;;;;;5000905;28;20099;-76
2023/04/14 06:12:06;;;;;;;0.10;0.10;;;;;;;;;;5001532;28;20068;-75
2023/04/14 06:14:54;;;;;;;0.20;0.20;;;;;;;;;;5000821;28;20030;-76
2023/04/14 06:17:40;;;;;;;0.10;0.10;;;;;;;;;;5004411;28;20030;-75
2023/04/14 06:20:26;;;;;;;0.17;0.17;;;;;;;;;;5003068;28;20125;-75
2023/04/14 06:23:12;;;;;;;0.20;0.20;;;;;;;;;;5002738;28;20873;-75
2023/04/14 06:25:57;;;;;;;0.20;0.20;;;;;;;;;;5000583;28;20523;-74
2023/04/14 06:28:43;;;;;;;0.20;0.20;;;;;;;;;;5002273;28;20221;-75
2023/04/14 06:31:29;;;;;;;0.10;0.10;;;;;;;;;;5002395;28;20125;-76
2023/04/14 06:34:14;;;;;;;0.20;0.20;;;;;;;;;;5001278;28;20129;-75
2023/04/14 06:37:00;;;;;;;0.10;0.10;;;;;;;;;;5003627;28;20387;-75
2023/04/14 06:39:46;;;;;;;0.20;0.20;;;;;;;;;;5003823;28;20337;-76
2023/04/14 06:42:31;;;;;;;0.20;0.20;;;;;;;;;;5004973;28;20457;-74
2023/04/14 06:45:17;;;;;;;0.10;0.10;;;;;;;;;;5001316;28;20152;-75
2023/04/14 06:48:03;;;;;;;0.20;0.20;;;;;;;;;;5003686;28;20029;-77
2023/04/14 06:50:55;;;;;;;0.20;0.20;;;;;;;;;;5001958;28;20103;-77
2023/04/14 06:53:41;;;;;;;0.10;0.10;;;;;;;;;;5003243;28;20034;-77
2023/04/14 06:56:27;;;;;;;0.20;0.20;;;;;;;;;;5002478;28;20357;-77
2023/04/14 06:59:13;;;;;;;0.17;0.17;;;;;;;;;;5000427;28;20123;-77
2023/04/14 07:01:59;;;;;;;0.10;0.10;;;;;;;;;;5022105;28;20062;-75
2023/04/14 07:04:45;;;;;;;0.10;0.10;;;;;;;;;;5001149;28;20044;-76
2023/04/14 07:07:34;;;;;;;0.20;0.20;;;;;;;;;;5001458;28;20116;-77
2023/04/14 07:10:20;;;;;;;0.10;0.10;;;;;;;;;;5001597;28;20435;-75
2023/04/14 07:13:06;;;;;;;0.20;0.20;;;;;;;;;;5000046;28;20080;-75
2023/04/14 07:15:51;;;;;;;0.20;0.20;;;;;;;;;;4997417;28;20390;-75
2023/04/14 07:18:37;;;;;;;0.20;0.20;;;;;;;;;;5003240;28;20087;-76
2023/04/14 07:21:23;;;;;;;0.10;0.10;;;;;;;;;;5000161;28;20153;-76
2023/04/14 07:24:08;;;;;;;0.20;0.20;;;;;;;;;;5006208;28;20244;-76
2023/04/14 07:26:54;;;;;;;0.10;0.10;;;;;;;;;;5001311;28;20037;-77
2023/04/14 07:29:40;;;;;;;0.20;0.20;;;;;;;;;;4999348;28;20029;-77
2023/04/14 07:32:26;;;;;;;0.20;0.20;;;;;;;;;;4999555;28;20042;-78
2023/04/14 07:35:12;;;;;;;0.20;0.20;;;;;;;;;;5001341;28;20430;-77
2023/04/14 07:37:58;;;;;;;0.20;0.20;;;;;;;;;;5002355;28;20034;-78
2023/04/14 07:40:44;;;;;;;0.10;0.10;;;;;;;;;;5004728;28;20038;-77
2023/04/14 07:43:36;;;;;;;0.13;0.13;;;;;;;;;;5003663;28;20356;-76
2023/04/14 07:46:22;;;;;;;0.10;0.10;;;;;;;;;;5000299;28;20531;-78
2023/04/14 07:49:07;;;;;;;0.20;0.20;;;;;;;;;;5000726;28;20053;-76
2023/04/14 07:51:53;;;;;;;0.20;0.20;;;;;;;;;;5001719;28;20033;-78
2023/04/14 07:54:39;;;;;;;0.10;0.10;;;;;;;;;;4998971;28;20046;-78
2023/04/14 07:57:25;;;;;;;0.20;0.20;;;;;;;;;;4999385;28;20493;-76
2023/04/14 08:00:10;;;;;;;0.20;0.20;;;;;;;;;;5001289;28;20622;-76
2023/04/14 08:02:59;;;;;;;0.10;0.10;;;;;;;;;;4981650;28;20443;-77
2023/04/14 08:05:45;;;;;;;0.10;0.10;;;;;;;;;;4980097;28;20034;-75
2023/04/14 08:08:30;;;;;;;0.10;0.10;;;;;;;;;;4981554;28;20475;-76
2023/04/14 08:11:16;;;;;;;0.10;0.10;;;;;;;;;;4978398;28;20050;-76
2023/04/14 08:14:03;;;;;;;0.20;0.20;;;;;;;;;;4977689;28;20122;-76
2023/04/14 08:16:49;;;;;;;0.20;0.20;;;;;;;;;;4977702;28;20491;-77
2023/04/14 08:19:35;;;;;;;0.10;0.10;;;;;;;;;;5005170;28;20034;-76
2023/04/14 08:22:21;;;;;;;0.10;0.10;;;;;;;;;;4980560;28;20042;-77
2023/04/14 08:25:10;;;;;;;0.15;0.15;;;;;;;;;;4981151;28;21011;-76
2023/04/14 08:27:56;;;;;;;0.10;0.10;;;;;;;;;;4980528;28;20026;-75
2023/04/14 08:30:42;;;;;;;0.10;0.10;;;;;;;;;;4976889;28;20333;-76
2023/04/14 08:33:28;;;;;;;0.10;0.10;;;;;;;;;;4977815;28;20034;-77
2023/04/14 08:36:13;;;;;;;0.20;0.20;;;;;;;;;;4980711;28;20044;-76
2023/04/14 08:38:59;;;;;;;0.10;0.10;;;;;;;;;;4977299;28;20427;-77
2023/04/14 08:41:45;;;;;;;0.10;0.10;;;;;;;;;;5003863;28;20517;-75
2023/04/14 08:44:31;;;;;;;0.10;0.10;;;;;;;;;;4981048;28;20045;-75
2023/04/14 08:47:21;;;;;;;0.10;0.10;;;;;;;;;;4976907;28;20030;-79
2023/04/14 08:50:12;;;;;;;0.10;0.10;;;;;;;;;;4976268;28;20531;-77
2023/04/14 08:52:59;;;;;;;0.17;0.17;;;;;;;;;;4955955;28;20072;-77
2023/04/14 08:55:45;;;;;;;0.10;0.10;;;;;;;;;;4977584;28;20097;-77
2023/04/14 08:58:31;;;;;;;0.10;0.10;;;;;;;;;;4979362;28;20062;-79
2023/04/14 09:01:17;;;;;;;0.10;0.10;;;;;;;;;;4978972;28;20038;-79
2023/04/14 09:04:04;;;;;;;0.10;0.10;;;;;;;;;;4986697;28;20030;-77
2023/04/14 09:06:50;;;;;;;0.13;0.13;;;;;;;;;;4978459;28;20033;-77
2023/04/14 09:09:36;;;;;;;0.10;0.10;;;;;;;;;;4979418;28;20512;-77
2023/04/14 09:12:23;;;;;;;0.10;0.10;;;;;;;;;;4982526;28;20042;-77
2023/04/14 09:15:09;;;;;;;0.10;0.10;;;;;;;;;;4977192;28;20068;-74
2023/04/14 09:17:55;;;;;;;0.10;0.10;;;;;;;;;;4978099;28;20459;-75
2023/04/14 09:20:40;;;;;;;0.10;0.10;;;;;;;;;;4977937;28;20042;-75
2023/04/14 09:23:27;;;;;;;0.20;0.20;;;;;;;;;;4977186;28;20140;-74
2023/04/14 09:26:12;;;;;;;0.10;0.10;;;;;;;;;;5002964;28;20038;-75
2023/04/14 09:28:59;;;;;;;0.10;0.10;;;;;;;;;;4978145;28;20518;-76
2023/04/14 09:31:45;;;;;;;0.10;0.10;;;;;;;;;;4979752;28;20046;-76
2023/04/14 09:34:31;;;;;;;0.20;0.20;;;;;;;;;;4978636;28;20530;-75
2023/04/14 09:37:17;;;;;;;0.10;0.10;;;;;;;;;;4979125;28;20483;-77
2023/04/14 09:40:02;;;;;;;0.10;0.10;;;;;;;;;;4977732;28;20069;-76
2023/04/14 09:42:48;;;;;;;0.20;0.20;;;;;;;;;;4981531;28;20046;-77
2023/04/14 09:45:43;;;;;;;0.10;0.10;;;;;;;;;;4976614;28;20038;-76
2023/04/14 09:48:29;;;;;;;0.10;0.10;;;;;;;;;;4985047;28;20542;-77
2023/04/14 09:51:15;;;;;;;0.10;0.10;;;;;;;;;;5004681;28;20168;-76
2023/04/14 09:54:01;;;;;;;0.20;0.20;;;;;;;;;;4990225;28;20041;-75
2023/04/14 09:56:47;;;;;;;0.10;0.10;;;;;;;;;;4979882;28;20101;-75
2023/04/14 09:59:34;;;;;;;0.10;0.10;;;;;;;;;;4982652;28;20439;-77
2023/04/14 10:02:19;;;;;;;0.10;0.10;;;;;;;;;;4983312;28;20535;-77
2023/04/14 10:05:05;;;;;;;0.10;0.10;;;;;;;;;;4984455;28;20042;-75
2023/04/14 10:07:51;;;;;;;0.10;0.10;;;;;;;;;;4983459;28;20042;-74
2023/04/14 10:10:37;;;;;;;0.20;0.20;;;;;;;;;;4982090;28;20046;-76
2023/04/14 10:13:23;;;;;;;0.20;0.20;;;;;;;;;;4980629;28;20628;-77
2023/04/14 10:16:09;;;;;;;0.10;0.10;;;;;;;;;;4979640;28;20047;-76
2023/04/14 10:18:57;;;;;;;0.20;0.20;;;;;;;;;;4993015;28;20347;-77
2023/04/14 10:21:43;;;;;;;0.17;0.17;;;;;;;;;;4982848;28;20046;-77
2023/04/14 10:24:28;;;;;;;0.20;0.20;;;;;;;;;;4983119;28;20179;-74
2023/04/14 10:27:14;;;;;;;0.20;0.20;;;;;;;;;;4982005;28;20561;-76
2023/04/14 10:30:01;;;;;;;0.20;0.20;;;;;;;;;;4984485;28;20040;-76
2023/04/14 10:32:47;;;;;;;0.10;0.10;;;;;;;;;;5005680;28;20467;-77
2023/04/14 10:35:40;;;;;;;0.20;0.20;;;;;;;;;;4981370;28;20092;-77
2023/04/14 10:38:42;;;;;;;0.20;0.20;;;;;;;;;;4971617;28;20644;-75
2023/04/14 10:41:47;;;;;;;0.20;0.20;;;;;;;;;;4979330;28;20037;-77
2023/04/14 10:44:33;;;;;;;0.20;0.20;;;;;;;;;;4981437;28;20481;-77
2023/04/14 10:47:24;;;;;;;0.20;0.20;;;;;;;;;;4977001;28;20515;-76
2023/04/14 10:50:12;;;;;;;0.20;0.20;;;;;;;;;;4979170;28;20038;-78
2023/04/14 10:53:05;;;;;;;0.10;0.10;;;;;;;;;;4974330;28;20069;-75
2023/04/14 10:55:55;;;;;;;0.30;0.30;;;;;;;;;;4978727;28;20061;-77
2023/04/14 10:58:44;;;;;;;0.20;0.20;;;;;;;;;;4983163;28;20503;-77
2023/04/14 11:01:31;;;;;;;0.30;0.30;;;;;;;;;;4981808;28;20103;-78
2023/04/14 11:04:19;;;;;;;0.20;0.20;;;;;;;;;;4981856;28;20046;-77
2023/04/14 11:07:08;;;;;;;0.10;0.10;;;;;;;;;;4981227;28;20504;-77
2023/04/14 11:09:59;;;;;;;0.13;0.13;;;;;;;;;;4981027;28;20034;-78
2023/04/14 11:12:46;;;;;;;0.20;0.20;;;;;;;;;;4983040;28;20852;-78
2023/04/14 11:15:43;;;;;;;0.20;0.20;;;;;;;;;;4983792;28;20715;-75
2023/04/14 11:18:28;;;;;;;0.20;0.20;;;;;;;;;;4981742;28;20382;-76
2023/04/14 11:21:15;;;;;;;0.20;0.20;;;;;;;;;;4980448;28;20129;-75
2023/04/14 11:24:00;;;;;;;0.10;0.10;;;;;;;;;;4977676;28;20362;-75
2023/04/14 11:26:46;;;;;;;0.13;0.13;;;;;;;;;;4978700;28;20029;-74
2023/04/14 11:29:33;;;;;;;0.10;0.10;;;;;;;;;;4979989;28;20121;-74
2023/04/14 11:32:18;;;;;;;0.10;0.10;;;;;;;;;;4980308;28;20042;-75
2023/04/14 11:35:07;;;;;;;0.20;0.20;;;;;;;;;;4981961;28;20034;-76
2023/04/14 11:37:54;;;;;;;0.20;0.20;;;;;;;;;;4980570;28;20314;-76
2023/04/14 11:40:40;;;;;;;0.20;0.20;;;;;;;;;;5008515;28;20034;-75
2023/04/14 11:43:29;;;;;;;0.10;0.10;;;;;;;;;;4983562;28;20042;-77
2023/04/14 11:46:18;;;;;;;0.28;0.28;;;;;;;;;;4980671;28;20311;-75
2023/04/14 11:49:03;;;;;;;0.20;0.20;;;;;;;;;;4978690;28;20038;-77
2023/04/14 11:51:54;;;;;;;0.20;0.20;;;;;;;;;;4985419;28;20076;-75
2023/04/14 11:54:40;;;;;;;0.28;0.28;;;;;;;;;;4977879;28;20046;-75
2023/04/14 11:57:26;;;;;;;0.20;0.20;;;;;;;;;;4980455;28;20034;-76
2023/04/14 12:00:12;;;;;;;0.20;0.20;;;;;;;;;;4982053;28;20498;-78
2023/04/14 12:03:02;;;;;;;0.10;0.10;;;;;;;;;;4978790;28;20050;-76
2023/04/14 12:05:48;;;;;;;0.20;0.20;;;;;;;;;;4986295;28;20507;-78
2023/04/14 12:08:33;;;;;;;0.17;0.17;;;;;;;;;;4983708;28;20574;-76
2023/04/14 12:11:21;;;;;;;0.10;0.10;;;;;;;;;;4982093;28;20033;-77
2023/04/14 12:14:07;;;;;;;0.10;0.10;;;;;;;;;;4979420;28;20304;-75
2023/04/14 12:16:53;;;;;;;0.20;0.20;;;;;;;;;;4979751;28;20334;-76
2023/04/14 12:19:38;;;;;;;0.20;0.20;;;;;;;;;;4980430;28;20041;-76
2023/04/14 12:22:27;;;;;;;0.10;0.10;;;;;;;;;;4980312;28;20038;-78
2023/04/14 12:25:13;;;;;;;0.05;0.05;;;;;;;;;;4978315;28;20064;-77
2023/04/14 12:28:05;;;;;;;0.08;0.08;;;;;;;;;;4982169;28;20117;-76
2023/04/14 12:30:51;;;;;;;0.20;0.20;;;;;;;;;;4979733;28;20038;-79
2023/04/14 12:33:44;;;;;;;0.10;0.10;;;;;;;;;;4979420;28;20451;-76
2023/04/14 12:36:30;;;;;;;0.10;0.10;;;;;;;;;;4981757;28;20337;-76
2023/04/14 12:39:16;;;;;;;0.10;0.10;;;;;;;;;;4981560;28;20076;-77
2023/04/14 12:42:03;;;;;;;0.00;0.00;;;;;;;;;;4979162;28;20041;-75
2023/04/14 12:44:56;;;;;;;0.10;0.10;;;;;;;;;;4981957;28;20030;-75
2023/04/14 12:47:52;;;;;;;0.03;0.03;;;;;;;;;;4973791;28;20104;-74
2023/04/14 12:50:38;;;;;;;0.00;0.00;;;;;;;;;;4979894;28;20231;-75
2023/04/14 12:53:25;;;;;;;0.20;0.20;;;;;;;;;;4981490;28;20046;-76
2023/04/14 12:56:15;;;;;;;0.10;0.10;;;;;;;;;;4976254;28;20553;-76
2023/04/14 12:59:02;;;;;;;0.20;0.20;;;;;;;;;;4976346;28;20069;-77
2023/04/14 13:01:48;;;;;;;0.20;0.20;;;;;;;;;;4977199;28;20041;-77
2023/04/14 13:04:33;;;;;;;0.10;0.10;;;;;;;;;;4977495;28;20133;-77
2023/04/14 13:07:20;;;;;;;0.20;0.20;;;;;;;;;;4979921;28;20040;-78
2023/04/14 13:10:06;;;;;;;0.20;0.20;;;;;;;;;;4979268;28;20073;-78
2023/04/14 13:12:51;;;;;;;0.10;0.10;;;;;;;;;;4979370;28;20038;-76
2023/04/14 13:15:37;;;;;;;0.10;0.10;;;;;;;;;;4980746;28;20399;-76
2023/04/14 13:18:23;;;;;;;0.10;0.10;;;;;;;;;;4981615;28;20034;-76
2023/04/14 13:21:09;;;;;;;0.20;0.20;;;;;;;;;;4977469;28;20061;-78
2023/04/14 13:23:54;;;;;;;0.10;0.10;;;;;;;;;;4980280;28;20040;-77
2023/04/14 13:26:40;;;;;;;0.10;0.10;;;;;;;;;;4977279;28;20519;-76
2023/04/14 13:29:26;;;;;;;0.10;0.10;;;;;;;;;;4981968;28;20104;-77
2023/04/14 13:32:11;;;;;;;0.10;0.10;;;;;;;;;;4983441;28;20140;-79
2023/04/14 13:34:57;;;;;;;0.20;0.20;;;;;;;;;;4981653;28;20030;-75
2023/04/14 13:37:43;;;;;;;0.10;0.10;;;;;;;;;;4983959;28;20038;-76
2023/04/14 13:40:29;;;;;;;0.10;0.10;;;;;;;;;;4981852;28;20030;-77
2023/04/14 13:43:16;;;;;;;0.10;0.10;;;;;;;;;;4983218;28;20038;-78
2023/04/14 13:46:02;;;;;;;0.00;0.00;;;;;;;;;;4981717;28;20034;-78
2023/04/14 13:48:48;;;;;;;0.10;0.10;;;;;;;;;;4983696;28;20108;-78
2023/04/14 13:51:34;;;;;;;0.20;0.20;;;;;;;;;;4988797;28;20042;-79
2023/04/14 13:54:19;;;;;;;0.17;0.17;;;;;;;;;;4983173;28;20042;-76
2023/04/14 13:57:05;;;;;;;0.10;0.10;;;;;;;;;;5005831;28;20034;-75
2023/04/14 13:59:51;;;;;;;0.05;0.05;;;;;;;;;;4983681;28;20327;-77
2023/04/14 14:02:40;;;;;;;0.10;0.10;;;;;;;;;;4982020;28;20562;-78
2023/04/14 14:05:26;;;;;;;0.10;0.10;;;;;;;;;;4980810;28;20037;-77
2023/04/14 14:08:15;;;;;;;0.20;0.20;;;;;;;;;;4979961;28;20560;-78
2023/04/14 14:11:00;;;;;;;0.10;0.10;;;;;;;;;;4982725;28;20477;-77
2023/04/14 14:13:46;;;;;;;0.13;0.10;;;;;;;;;;4983304;28;20029;-77
2023/04/14 14:16:32;;;;;;;0.10;0.10;;;;;;;;;;4985647;28;20038;-76
2023/04/14 14:19:17;;;;;;;0.15;0.15;;;;;;;;;;4968571;28;20154;-74
2023/04/14 14:22:03;;;;;;;0.20;0.20;;;;;;;;;;5007096;28;20046;-76
2023/04/14 14:24:49;;;;;;;0.20;0.20;;;;;;;;;;4966484;28;20060;-76
2023/04/14 14:27:34;;;;;;;0.13;0.13;;;;;;;;;;4981093;28;20553;-74
2023/04/14 14:30:20;;;;;;;0.05;0.05;;;;;;;;;;4980909;28;20521;-76
2023/04/14 14:33:06;;;;;;;0.10;0.10;;;;;;;;;;4980901;28;20045;-77
2023/04/14 14:35:52;;;;;;;0.13;0.13;;;;;;;;;;4981283;28;20411;-76
2023/04/14 14:38:37;;;;;;;0.10;0.10;;;;;;;;;;4982183;28;20034;-78
2023/04/14 14:41:23;;;;;;;0.13;0.13;;;;;;;;;;4980778;28;20194;-78
2023/04/14 14:44:09;;;;;;;0.10;0.10;;;;;;;;;;4969754;28;20137;-76
2023/04/14 14:46:55;;;;;;;0.20;0.20;;;;;;;;;;4982868;28;20044;-76
2023/04/14 14:49:41;;;;;;;0.10;0.10;;;;;;;;;;4980567;28;20490;-77
2023/04/14 14:52:28;;;;;;;0.10;0.10;;;;;;;;;;4981538;28;20112;-75
2023/04/14 14:55:14;;;;;;;0.10;0.10;;;;;;;;;;4981238;28;20046;-78
2023/04/14 14:58:00;;;;;;;0.10;0.10;;;;;;;;;;4982610;28;20038;-76
2023/04/14 15:00:46;;;;;;;0.10;0.10;;;;;;;;;;4982677;28;20456;-77
2023/04/14 15:03:31;;;;;;;0.10;0.10;;;;;;;;;;4983678;28;20266;-76
2023/04/14 15:06:17;;;;;;;0.15;0.15;;;;;;;;;;4980591;28;20559;-77
2023/04/14 15:09:04;;;;;;;0.10;0.10;;;;;;;;;;4982898;28;20345;-78
2023/04/14 15:11:50;;;;;;;0.10;0.10;;;;;;;;;;4981596;28;20034;-77
2023/04/14 15:14:35;;;;;;;0.10;0.10;;;;;;;;;;4982844;28;20039;-76
2023/04/14 15:17:22;;;;;;;0.10;0.10;;;;;;;;;;4979827;28;20133;-77
2023/04/14 15:20:08;;;;;;;0.20;0.20;;;;;;;;;;4982848;28;20037;-77
2023/04/14 15:22:53;;;;;;;0.40;0.40;;;;;;;;;;4982833;28;20049;-78
2023/04/14 15:25:39;;;;;;;0.20;0.20;;;;;;;;;;4982047;28;20030;-77
2023/04/14 15:28:28;;;;;;;0.10;0.10;;;;;;;;;;4981052;28;21259;-76
2023/04/14 15:31:14;;;;;;;0.10;0.10;;;;;;;;;;4979651;28;20038;-77
2023/04/14 15:34:02;;;;;;;0.15;0.15;;;;;;;;;;4986116;28;20092;-77
2023/04/14 15:36:48;;;;;;;0.20;0.20;;;;;;;;;;4982432;28;20035;-77
2023/04/14 15:39:35;;;;;;;0.10;0.10;;;;;;;;;;4984025;28;20034;-77
2023/04/14 15:42:21;;;;;;;0.20;0.20;;;;;;;;;;4979920;28;20054;-77
2023/04/14 15:45:07;;;;;;;0.20;0.20;;;;;;;;;;4979912;28;20491;-76
2023/04/14 15:47:53;;;;;;;0.10;0.10;;;;;;;;;;4984512;28;20530;-76
2023/04/14 15:50:38;;;;;;;0.20;0.20;;;;;;;;;;4978589;28;20070;-76
2023/04/14 15:53:26;;;;;;;0.20;0.20;;;;;;;;;;4981644;28;20590;-75
2023/04/14 15:56:12;;;;;;;0.20;0.20;;;;;;;;;;4981780;28;20064;-74
2023/04/14 15:58:58;;;;;;;0.10;0.10;;;;;;;;;;4977578;28;20537;-76
2023/04/14 16:01:43;;;;;;;0.10;0.10;;;;;;;;;;4978744;28;20050;-75
2023/04/14 16:04:29;;;;;;;0.20;0.20;;;;;;;;;;4979511;28;20065;-76
2023/04/14 16:07:15;;;;;;;0.20;0.20;;;;;;;;;;4979616;28;20034;-75
2023/04/14 16:10:02;;;;;;;0.10;0.10;;;;;;;;;;4981115;28;20065;-76
2023/04/14 16:12:48;;;;;;;0.20;0.20;;;;;;;;;;4981951;28;20034;-76
2023/04/14 16:15:34;;;;;;;0.10;0.10;;;;;;;;;;4980089;28;20097;-75
2023/04/14 16:18:20;;;;;;;0.20;0.20;;;;;;;;;;4978660;28;20062;-76
2023/04/14 16:21:05;;;;;;;0.10;0.10;;;;;;;;;;4978214;28;20034;-75
2023/04/14 16:23:51;;;;;;;0.10;0.10;;;;;;;;;;4980802;28;20083;-76
2023/04/14 16:26:37;;;;;;;0.20;0.20;;;;;;;;;;4980404;28;20032;-75
2023/04/14 16:29:23;;;;;;;0.10;0.10;;;;;;;;;;4980622;28;20038;-76
2023/04/14 16:32:09;;;;;;;0.20;0.20;;;;;;;;;;4981617;28;20053;-76
2023/04/14 16:34:55;;;;;;;0.10;0.10;;;;;;;;;;4986843;28;20254;-74
2023/04/14 16:37:41;;;;;;;0.10;0.10;;;;;;;;;;4980172;28;20034;-75
2023/04/14 16:40:26;;;;;;;0.10;0.10;;;;;;;;;;4978669;28;20463;-75